Time;durP1;ratioP1;P1;durP2;ratioP2;P2;SDS_P1;SDS_P2;PMS_P1;PMS_P2;Temp;Humidity;BMP_temperature;BMP_pressure;BME280_temperature;BME280_humidity;BME280_pressure;Samples;Min_cycle;Max_cycle;Signal;HPM_P1;HPM_P2
2022/05/29 00:01:00;;;;;;;27.48;4.03;;;8.70;72.20;;;;;;4131664;28;21990;-87
2022/05/29 00:03:01;;;;;;;13.80;3.63;;;8.60;72.20;;;;;;4117563;28;20026;-87
2022/05/29 00:05:03;;;;;;;27.77;4.47;;;8.60;72.10;;;;;;4129357;28;20025;-87
2022/05/29 00:07:05;;;;;;;23.65;3.80;;;8.60;72.10;;;;;;4129931;28;20080;-86
2022/05/29 00:09:12;;;;;;;21.08;3.75;;;8.60;72.10;;;;;;4115463;28;20546;-87
2022/05/29 00:11:14;;;;;;;25.20;4.15;;;8.50;71.90;;;;;;4115235;28;20428;-87
2022/05/29 00:13:15;;;;;;;21.08;3.22;;;8.50;71.80;;;;;;4131312;28;20034;-87
2022/05/29 00:15:15;;;;;;;18.88;3.65;;;8.50;71.90;;;;;;4114802;28;20122;-87
2022/05/29 00:17:18;;;;;;;22.67;3.92;;;8.40;71.80;;;;;;4129152;28;20034;-87
2022/05/29 00:19:19;;;;;;;17.27;3.75;;;8.40;71.80;;;;;;4115412;28;20468;-87
2022/05/29 00:21:20;;;;;;;23.48;3.45;;;8.40;71.80;;;;;;4130400;28;20072;-88
2022/05/29 00:23:21;;;;;;;18.58;3.40;;;8.40;71.80;;;;;;4117738;28;20113;-86
2022/05/29 00:25:22;;;;;;;15.63;3.58;;;8.40;71.80;;;;;;4132852;28;20510;-86
2022/05/29 00:27:23;;;;;;;21.23;3.90;;;8.30;71.80;;;;;;4115217;28;20039;-87
2022/05/29 00:29:24;;;;;;;26.65;3.97;;;8.30;71.90;;;;;;4134031;28;20381;-87
2022/05/29 00:31:25;;;;;;;18.33;3.53;;;8.30;71.90;;;;;;4112242;28;20046;-87
2022/05/29 00:33:26;;;;;;;18.73;3.72;;;8.30;71.90;;;;;;4109831;28;20038;-87
2022/05/29 00:35:28;;;;;;;17.42;3.83;;;8.30;72.00;;;;;;4115337;28;20081;-87
2022/05/29 00:37:34;;;;;;;15.15;3.80;;;8.40;72.10;;;;;;4112852;28;20053;-87
2022/05/29 00:39:34;;;;;;;14.38;3.17;;;8.30;72.10;;;;;;4125450;28;20445;-87
2022/05/29 00:41:37;;;;;;;17.27;3.88;;;8.30;72.10;;;;;;4110916;28;20038;-87
2022/05/29 00:44:17;;;;;;;26.70;4.20;;;8.30;72.20;;;;;;4114345;28;20029;-87
2022/05/29 00:47:34;;;;;;;21.77;3.70;;;8.30;72.30;;;;;;4111653;28;20176;-87
2022/05/29 00:50:43;;;;;;;23.38;4.13;;;8.30;72.40;;;;;;4114529;28;20038;-87
2022/05/29 00:53:44;;;;;;;18.42;3.55;;;8.20;72.20;;;;;;4114634;28;20049;-86
2022/05/29 00:56:48;;;;;;;19.17;3.83;;;8.20;72.30;;;;;;4116149;28;20042;-87
2022/05/29 01:02:57;;;;;;;21.33;3.72;;;8.20;72.30;;;;;;4112216;28;20050;-86
2022/05/29 01:15:18;;;;;;;20.15;3.80;;;8.10;73.00;;;;;;4081741;28;20036;-88
2022/05/29 01:18:15;;;;;;;25.92;4.15;;;8.10;73.00;;;;;;4081229;28;20186;-88
2022/05/29 01:24:10;;;;;;;25.73;4.28;;;8.10;73.10;;;;;;4079104;28;20662;-87
2022/05/29 01:26:26;;;;;;;24.08;4.10;;;8.10;73.20;;;;;;4083088;28;22352;-87
2022/05/29 01:28:51;;;;;;;19.90;4.07;;;8.10;73.30;;;;;;4084989;28;20457;-87
2022/05/29 01:31:48;;;;;;;20.98;3.60;;;8.10;73.20;;;;;;4080146;28;20043;-88
2022/05/29 01:37:23;;;;;;;16.75;3.25;;;8.10;73.50;;;;;;4083028;28;20071;-87
2022/05/29 01:39:45;;;;;;;22.92;3.58;;;8.10;73.60;;;;;;4088736;28;20050;-87
2022/05/29 01:48:18;;;;;;;27.70;4.70;;;8.10;73.50;;;;;;4099463;28;20449;-87
2022/05/29 01:53:39;;;;;;;14.55;3.33;;;8.10;73.70;;;;;;4060169;29;20131;-87
2022/05/29 01:55:53;;;;;;;21.40;3.47;;;8.10;73.70;;;;;;4047554;29;20521;-87
2022/05/29 02:01:41;;;;;;;20.58;3.80;;;8.10;74.10;;;;;;4005070;29;20033;-87
2022/05/29 02:10:12;;;;;;;19.92;3.80;;;8.10;73.90;;;;;;4001524;29;20999;-87
2022/05/29 02:13:00;;;;;;;18.63;3.70;;;8.10;73.90;;;;;;4005404;29;20082;-87
2022/05/29 02:16:02;;;;;;;18.90;4.13;;;8.10;74.00;;;;;;4000777;29;22353;-87
2022/05/29 02:39:19;;;;;;;17.85;3.60;;;8.10;74.20;;;;;;4037907;29;20041;-87
2022/05/29 02:41:46;;;;;;;16.02;3.83;;;8.00;74.20;;;;;;4040400;29;20264;-86
2022/05/29 02:43:58;;;;;;;22.02;3.75;;;8.00;74.10;;;;;;4042694;29;20183;-86
2022/05/29 02:46:36;;;;;;;15.95;3.72;;;8.00;74.10;;;;;;4043314;29;20043;-86
2022/05/29 02:49:17;;;;;;;14.07;3.25;;;8.00;74.40;;;;;;4059916;28;22298;-87
2022/05/29 02:54:50;;;;;;;21.50;3.50;;;8.00;74.40;;;;;;4122202;28;20065;-86
2022/05/29 02:57:34;;;;;;;20.42;4.07;;;8.00;75.20;;;;;;4152645;28;21915;-86
2022/05/29 03:00:11;;;;;;;30.13;4.80;;;8.00;74.50;;;;;;4148173;28;20041;-86
2022/05/29 03:05:52;;;;;;;17.75;3.88;;;8.10;74.60;;;;;;4068130;29;20099;-87
2022/05/29 03:11:27;;;;;;;22.92;4.90;;;8.00;74.60;;;;;;4071573;29;20115;-87
2022/05/29 03:17:09;;;;;;;23.33;3.38;;;8.00;74.80;;;;;;4070107;29;20140;-86
2022/05/29 03:25:41;;;;;;;14.98;3.42;;;8.10;75.10;;;;;;4068384;29;20502;-86
2022/05/29 03:43:02;;;;;;;17.02;3.50;;;8.10;75.30;;;;;;4135028;28;20038;-87
2022/05/29 03:45:31;;;;;;;16.90;3.95;;;8.20;75.70;;;;;;4121276;28;20450;-86
2022/05/29 03:47:53;;;;;;;14.90;3.80;;;8.20;75.80;;;;;;4116543;28;20034;-87
2022/05/29 03:50:00;;;;;;;24.73;5.15;;;8.20;75.70;;;;;;4134191;28;20613;-87
2022/05/29 03:52:41;;;;;;;21.48;3.75;;;8.20;75.50;;;;;;4134573;28;20092;-86
2022/05/29 04:01:28;;;;;;;16.23;4.05;;;8.30;76.10;;;;;;4150008;28;20026;-87
2022/05/29 04:03:57;;;;;;;15.95;3.85;;;8.30;76.30;;;;;;4132401;28;20099;-87
2022/05/29 04:12:07;;;;;;;30.48;4.97;;;8.40;76.80;;;;;;4123240;28;20038;-87
2022/05/29 04:44:29;;;;;;;29.33;4.90;;;9.40;80.00;;;;;;4099200;28;20030;-87
2022/05/29 04:47:24;;;;;;;15.73;3.38;;;9.60;80.00;;;;;;4097959;28;20038;-86
2022/05/29 04:50:04;;;;;;;28.58;4.72;;;9.70;79.80;;;;;;4097033;28;20038;-86
2022/05/29 04:52:40;;;;;;;19.63;4.35;;;9.80;80.00;;;;;;4098863;28;20190;-87
2022/05/29 04:55:22;;;;;;;24.00;4.40;;;10.00;80.10;;;;;;4097163;28;20628;-86
2022/05/29 04:58:01;;;;;;;21.10;4.35;;;10.10;80.00;;;;;;4096399;28;21320;-85
2022/05/29 05:04:14;;;;;;;24.33;4.45;;;10.30;80.10;;;;;;4098028;28;20033;-87
2022/05/29 05:18:08;;;;;;;25.30;4.65;;;11.00;77.50;;;;;;4119652;28;20549;-86
2022/05/29 05:23:05;;;;;;;28.52;6.82;;;11.20;76.60;;;;;;4118948;28;20352;-86
2022/05/29 05:28:17;;;;;;;25.77;3.85;;;11.40;76.20;;;;;;4095187;28;20054;-86
2022/05/29 05:39:10;;;;;;;32.55;4.30;;;11.80;74.10;;;;;;4097588;28;20363;-85
2022/05/29 05:47:13;;;;;;;26.45;3.45;;;12.00;72.40;;;;;;4098947;28;20024;-86
2022/05/29 05:49:35;;;;;;;31.65;4.63;;;12.00;72.50;;;;;;4076523;28;20122;-87
2022/05/29 05:55:20;;;;;;;27.27;4.03;;;12.10;72.40;;;;;;4098206;28;20126;-88
2022/05/29 05:57:23;;;;;;;24.33;4.60;;;12.20;72.50;;;;;;4096500;28;20035;-86
2022/05/29 06:02:41;;;;;;;28.13;4.97;;;12.20;71.00;;;;;;4094693;28;20102;-87
2022/05/29 06:04:43;;;;;;;23.85;3.97;;;12.30;70.60;;;;;;4099796;28;20125;-88
2022/05/29 06:10:33;;;;;;;21.25;4.50;;;12.30;70.60;;;;;;4114312;28;20043;-86
2022/05/29 06:15:44;;;;;;;24.17;4.35;;;12.40;70.80;;;;;;4117013;28;20026;-86
2022/05/29 06:21:10;;;;;;;32.90;3.83;;;12.50;69.70;;;;;;4133566;28;20429;-88
2022/05/29 06:24:07;;;;;;;24.23;3.88;;;12.60;68.90;;;;;;4133813;28;20054;-88
2022/05/29 06:37:40;;;;;;;24.05;4.32;;;13.00;67.60;;;;;;4473363;23;20497;-88
2022/05/29 06:40:00;;;;;;;30.75;4.70;;;13.00;66.50;;;;;;4146320;28;20046;-87
2022/05/29 06:42:21;;;;;;;23.42;3.47;;;13.10;65.30;;;;;;4137156;28;20125;-87
2022/05/29 06:44:42;;;;;;;26.50;4.10;;;13.10;64.40;;;;;;4134347;28;20034;-88
2022/05/29 06:47:06;;;;;;;18.10;3.20;;;13.10;64.00;;;;;;4135234;28;20181;-87
2022/05/29 06:49:27;;;;;;;29.10;3.58;;;13.10;63.50;;;;;;4129761;28;21024;-86
2022/05/29 06:51:48;;;;;;;21.95;3.88;;;13.10;63.10;;;;;;4132883;28;20112;-88
2022/05/29 06:54:09;;;;;;;28.73;4.00;;;13.10;62.90;;;;;;4136548;28;20052;-88
2022/05/29 06:56:31;;;;;;;17.63;3.60;;;13.10;63.10;;;;;;4147786;28;20026;-87
2022/05/29 06:58:54;;;;;;;27.33;3.50;;;13.10;63.30;;;;;;4134529;28;20045;-87
2022/05/29 07:07:55;;;;;;;20.92;3.78;;;13.10;63.30;;;;;;4137573;28;20034;-88
2022/05/29 07:09:55;;;;;;;26.88;3.88;;;13.20;63.80;;;;;;4151709;28;20032;-87
2022/05/29 07:12:09;;;;;;;25.38;4.25;;;13.20;63.70;;;;;;4146717;28;20436;-87
2022/05/29 07:14:10;;;;;;;16.95;3.28;;;13.30;63.40;;;;;;4132942;28;20226;-86
2022/05/29 07:16:11;;;;;;;24.38;3.53;;;13.40;63.00;;;;;;4132338;28;20940;-86
2022/05/29 07:18:13;;;;;;;25.48;3.67;;;13.40;63.00;;;;;;4136441;28;20124;-88
2022/05/29 07:20:15;;;;;;;24.98;3.50;;;13.40;62.60;;;;;;4131725;28;20127;-88
2022/05/29 07:22:16;;;;;;;21.00;3.50;;;13.40;62.80;;;;;;4137586;28;20030;-88
2022/05/29 07:24:17;;;;;;;19.70;3.20;;;13.50;62.60;;;;;;4133384;28;20026;-88
2022/05/29 07:26:18;;;;;;;19.45;3.47;;;13.50;62.10;;;;;;4134107;28;20126;-86
2022/05/29 07:28:18;;;;;;;17.63;3.47;;;13.50;61.90;;;;;;4132345;28;20022;-88
2022/05/29 07:30:20;;;;;;;18.27;2.80;;;13.60;62.00;;;;;;4154623;28;20033;-87
2022/05/29 07:32:23;;;;;;;19.95;3.53;;;13.60;62.10;;;;;;4134864;28;20487;-89
2022/05/29 07:34:24;;;;;;;;;;;13.70;62.10;;;;;;4119558;28;20065;-90
2022/05/29 07:36:26;;;;;;;28.15;3.78;;;13.70;61.70;;;;;;4115893;28;19909;-89
2022/05/29 07:38:29;;;;;;;18.75;3.47;;;13.80;61.70;;;;;;4117055;28;20040;-89
2022/05/29 07:40:30;;;;;;;20.30;3.10;;;13.90;61.40;;;;;;4098778;28;20089;-88
2022/05/29 07:44:50;;;;;;;25.10;3.42;;;14.00;61.70;;;;;;4116179;28;22068;-88
2022/05/29 07:46:50;;;;;;;21.83;3.78;;;14.10;60.90;;;;;;4100772;28;20563;-87
2022/05/29 07:49:11;;;;;;;23.75;4.03;;;14.20;60.80;;;;;;4105380;28;20525;-87
2022/05/29 07:51:19;;;;;;;23.38;3.92;;;14.30;60.30;;;;;;4115436;28;20223;-87
2022/05/29 07:53:22;;;;;;;19.35;3.17;;;14.40;60.00;;;;;;4100001;28;20051;-88
2022/05/29 07:55:23;;;;;;;27.40;3.95;;;14.40;60.30;;;;;;4102269;28;22234;-86
2022/05/29 07:57:43;;;;;;;21.48;3.83;;;14.50;60.50;;;;;;4113924;28;20066;-87
2022/05/29 08:00:07;;;;;;;20.83;3.88;;;14.50;59.90;;;;;;4120114;28;20031;-88
2022/05/29 08:02:30;;;;;;;23.40;3.85;;;14.60;59.80;;;;;;4121541;28;20026;-87
2022/05/29 08:04:42;;;;;;;19.33;3.47;;;14.70;59.80;;;;;;4117736;28;20030;-88
2022/05/29 08:07:06;;;;;;;12.18;2.45;;;14.70;59.40;;;;;;4099574;28;20034;-87
2022/05/29 08:09:27;;;;;;;20.67;2.75;;;14.80;59.50;;;;;;4115347;28;20606;-87
2022/05/29 08:11:48;;;;;;;24.55;3.38;;;14.80;59.60;;;;;;4118694;28;20122;-87
2022/05/29 08:14:09;;;;;;;15.55;2.97;;;14.90;59.30;;;;;;4133282;28;20041;-86
2022/05/29 08:16:30;;;;;;;25.30;3.70;;;14.90;59.20;;;;;;4131832;28;20029;-86
2022/05/29 08:18:53;;;;;;;15.07;3.13;;;15.00;58.70;;;;;;4131962;28;20030;-87
2022/05/29 08:21:15;;;;;;;21.25;3.10;;;15.10;58.80;;;;;;4147121;28;20076;-87
2022/05/29 08:23:18;;;;;;;17.10;3.10;;;15.20;58.70;;;;;;4132289;28;20026;-87
2022/05/29 08:32:19;;;;;;;18.27;3.08;;;15.40;57.20;;;;;;4132917;28;20780;-88
2022/05/29 08:34:20;;;;;;;22.63;3.38;;;15.40;56.70;;;;;;4128546;28;20029;-87
2022/05/29 08:36:24;;;;;;;20.33;3.67;;;15.40;56.60;;;;;;4130747;28;20100;-87
2022/05/29 08:38:25;;;;;;;19.52;3.47;;;15.40;56.50;;;;;;4140785;28;20036;-87
2022/05/29 08:40:27;;;;;;;21.75;3.30;;;15.40;56.50;;;;;;4127960;28;20071;-88
2022/05/29 08:42:30;;;;;;;20.83;3.25;;;15.40;56.60;;;;;;4128752;28;20026;-86
2022/05/29 08:44:48;;;;;;;19.48;3.63;;;15.40;56.60;;;;;;4129943;28;20027;-88
2022/05/29 08:46:52;;;;;;;13.07;2.80;;;15.40;56.60;;;;;;4139381;28;20124;-87
2022/05/29 08:48:54;;;;;;;15.90;3.25;;;15.40;57.10;;;;;;4139780;28;20033;-87
2022/05/29 08:51:32;;;;;;;19.90;3.22;;;15.40;57.30;;;;;;4129157;28;20062;-88
2022/05/29 08:53:33;;;;;;;18.42;3.28;;;15.50;57.10;;;;;;4142518;28;20044;-87
2022/05/29 08:55:47;;;;;;;12.50;3.08;;;15.50;57.40;;;;;;4128390;28;20113;-86
2022/05/29 08:57:56;;;;;;;16.10;3.13;;;15.70;56.20;;;;;;4144265;28;20038;-87
2022/05/29 09:00:12;;;;;;;17.23;2.90;;;15.70;56.80;;;;;;4129641;28;20636;-88
2022/05/29 09:02:34;;;;;;;21.70;3.33;;;15.70;56.70;;;;;;4146189;28;20044;-85
2022/05/29 09:05:07;;;;;;;16.35;2.90;;;15.80;56.60;;;;;;4131601;28;20038;-87
2022/05/29 09:07:10;;;;;;;17.70;2.97;;;15.90;56.20;;;;;;4106642;28;20541;-87
2022/05/29 09:09:22;;;;;;;17.02;3.28;;;16.00;56.70;;;;;;4163677;28;20029;-86
2022/05/29 09:11:41;;;;;;;15.82;3.08;;;16.10;56.30;;;;;;4145245;28;20053;-85
2022/05/29 09:13:52;;;;;;;17.23;3.25;;;16.10;55.60;;;;;;4140372;28;20462;-88
2022/05/29 09:16:17;;;;;;;18.38;2.97;;;16.20;56.40;;;;;;4132152;28;23231;-87
2022/05/29 09:18:37;;;;;;;16.83;2.92;;;16.30;55.50;;;;;;4128578;28;20045;-87
2022/05/29 09:21:32;;;;;;;15.88;2.90;;;16.30;54.90;;;;;;4128059;28;20036;-86
2022/05/29 09:24:26;;;;;;;13.25;2.95;;;16.40;54.20;;;;;;4127328;28;20030;-87
2022/05/29 09:26:47;;;;;;;16.38;2.72;;;16.60;54.10;;;;;;4143574;28;20034;-87
2022/05/29 09:29:10;;;;;;;14.93;2.95;;;16.60;54.10;;;;;;4131477;28;20045;-88
2022/05/29 09:31:32;;;;;;;12.18;2.47;;;16.70;53.90;;;;;;4136069;28;20084;-87
2022/05/29 09:33:54;;;;;;;19.83;2.97;;;16.80;54.00;;;;;;4134736;28;20081;-86
2022/05/29 09:36:34;;;;;;;11.10;2.38;;;16.80;53.70;;;;;;4150764;28;20612;-87
2022/05/29 09:39:05;;;;;;;17.02;2.90;;;16.90;52.50;;;;;;4131111;28;20027;-87
2022/05/29 09:41:36;;;;;;;15.35;2.45;;;16.90;51.90;;;;;;4131638;28;20095;-87
2022/05/29 09:43:37;;;;;;;12.43;2.20;;;16.90;52.10;;;;;;4135685;28;20030;-86
2022/05/29 09:45:38;;;;;;;14.10;2.67;;;17.00;52.50;;;;;;4151029;28;20036;-88
2022/05/29 09:50:10;;;;;;;10.93;2.38;;;17.10;52.50;;;;;;4135797;28;20746;-88
2022/05/29 09:52:12;;;;;;;11.55;2.05;;;17.10;52.30;;;;;;4137361;28;20033;-88
2022/05/29 09:54:30;;;;;;;8.13;2.30;;;17.20;52.90;;;;;;4136959;28;20696;-88
2022/05/29 09:56:33;;;;;;;14.32;2.40;;;17.30;52.20;;;;;;4146935;28;20033;-89
2022/05/29 09:58:52;;;;;;;11.27;2.25;;;17.30;52.40;;;;;;4138710;28;20045;-86
2022/05/29 10:00:58;;;;;;;14.05;2.90;;;17.40;51.90;;;;;;4136124;28;20030;-87
2022/05/29 10:03:01;;;;;;;18.80;2.90;;;17.40;51.60;;;;;;4152646;28;20040;-88
2022/05/29 10:05:03;;;;;;;11.77;2.10;;;17.50;51.20;;;;;;4148563;28;20041;-86
2022/05/29 10:07:35;;;;;;;13.57;2.15;;;17.50;51.60;;;;;;4136008;28;20085;-88
2022/05/29 10:10:06;;;;;;;12.48;2.40;;;17.50;51.10;;;;;;4140202;28;20053;-89
2022/05/29 10:12:18;;;;;;;14.82;2.90;;;17.50;50.80;;;;;;4137212;28;20037;-88
2022/05/29 10:14:24;;;;;;;14.90;2.13;;;17.50;51.00;;;;;;4141007;28;20444;-88
2022/05/29 10:16:37;;;;;;;12.68;2.17;;;17.60;50.80;;;;;;4152444;28;20149;-88
2022/05/29 10:18:42;;;;;;;9.85;2.13;;;17.60;50.60;;;;;;4138125;28;20057;-88
2022/05/29 10:20:46;;;;;;;8.35;2.00;;;17.70;51.10;;;;;;4140462;28;20026;-89
2022/05/29 10:22:47;;;;;;;8.70;1.92;;;17.70;51.30;;;;;;4139200;28;20038;-89
2022/05/29 10:24:49;;;;;;;12.73;2.33;;;17.80;51.20;;;;;;4127635;28;20027;-88
2022/05/29 10:26:57;;;;;;;12.32;1.95;;;17.90;51.20;;;;;;4138690;28;20030;-88
2022/05/29 10:29:01;;;;;;;15.98;2.75;;;18.00;51.10;;;;;;4152787;28;20034;-89
2022/05/29 10:31:25;;;;;;;12.30;2.08;;;18.00;50.80;;;;;;4130247;28;20138;-89
2022/05/29 10:34:13;;;;;;;12.15;2.28;;;18.10;49.60;;;;;;4139610;28;20381;-89
2022/05/29 10:36:35;;;;;;;13.25;2.30;;;18.30;48.70;;;;;;4139454;28;20084;-89
2022/05/29 10:39:17;;;;;;;17.27;2.38;;;18.30;49.80;;;;;;4141329;28;20088;-89
2022/05/29 10:41:41;;;;;;;10.68;2.45;;;18.40;49.40;;;;;;4155131;28;20205;-89
2022/05/29 10:44:02;;;;;;;17.33;2.80;;;18.40;49.30;;;;;;4140721;28;20038;-88
2022/05/29 10:46:39;;;;;;;11.25;2.03;;;18.40;49.20;;;;;;4148619;28;20049;-89
2022/05/29 10:49:25;;;;;;;14.32;2.38;;;18.40;48.80;;;;;;4145725;28;20034;-88
2022/05/29 10:52:21;;;;;;;15.80;2.38;;;18.40;48.60;;;;;;4149034;28;20089;-89
2022/05/29 10:54:47;;;;;;;17.15;2.20;;;18.50;47.30;;;;;;4149417;28;20041;-88
2022/05/29 10:57:46;;;;;;;12.35;2.25;;;18.50;49.00;;;;;;4145632;28;21797;-88
2022/05/29 11:00:23;;;;;;;14.68;2.80;;;18.50;48.80;;;;;;4143565;28;20566;-88
2022/05/29 11:03:21;;;;;;;12.95;2.33;;;18.60;49.00;;;;;;4147082;28;20030;-88
2022/05/29 11:06:13;;;;;;;8.45;1.95;;;18.60;48.60;;;;;;4140252;28;20038;-89
2022/05/29 11:08:52;;;;;;;10.75;2.10;;;18.60;48.50;;;;;;4141248;28;20076;-89
2022/05/29 11:11:23;;;;;;;11.27;2.00;;;18.80;47.90;;;;;;4140626;28;20096;-89
2022/05/29 11:13:59;;;;;;;14.70;2.38;;;18.80;48.00;;;;;;4143309;28;20037;-89
2022/05/29 11:16:18;;;;;;;10.25;2.38;;;18.90;48.20;;;;;;4151951;28;20148;-90
2022/05/29 11:18:57;;;;;;;13.05;2.08;;;19.00;48.20;;;;;;4151613;28;20071;-88
2022/05/29 11:21:44;;;;;;;16.65;3.20;;;19.00;47.50;;;;;;4152206;28;20037;-88
2022/05/29 11:24:52;;;;;;;14.35;2.38;;;19.10;47.40;;;;;;4139334;28;20029;-88
2022/05/29 11:27:32;;;;;;;16.60;2.50;;;19.10;47.20;;;;;;4125815;28;20041;-90
2022/05/29 11:30:13;;;;;;;11.20;2.20;;;19.10;47.80;;;;;;4122600;28;20038;-89
2022/05/29 11:32:51;;;;;;;9.82;2.00;;;19.10;46.70;;;;;;4116929;28;20507;-89
2022/05/29 11:35:38;;;;;;;10.38;2.55;;;19.10;47.30;;;;;;4120554;28;20524;-88
2022/05/29 11:38:10;;;;;;;12.40;1.92;;;19.10;47.60;;;;;;4127602;28;20034;-89
2022/05/29 11:40:42;;;;;;;7.40;1.90;;;19.10;48.00;;;;;;4124021;28;20088;-90
2022/05/29 11:43:11;;;;;;;7.65;2.05;;;19.10;46.80;;;;;;4124992;28;20034;-89
2022/05/29 11:51:08;;;;;;;7.88;2.08;;;19.20;46.80;;;;;;4118847;28;20104;-89
2022/05/29 11:53:32;;;;;;;12.23;2.13;;;19.20;46.70;;;;;;4105828;28;20635;-90
2022/05/29 11:55:55;;;;;;;8.40;1.83;;;19.20;46.30;;;;;;4122187;28;20045;-90
2022/05/29 11:58:28;;;;;;;15.13;2.57;;;19.30;46.50;;;;;;4135880;28;20333;-89
2022/05/29 12:00:49;;;;;;;10.18;1.77;;;19.30;46.00;;;;;;4133555;28;20037;-88
2022/05/29 12:03:54;;;;;;;13.27;2.20;;;19.30;46.00;;;;;;4131491;28;20062;-89
2022/05/29 12:06:14;;;;;;;6.57;1.58;;;19.40;45.50;;;;;;4124471;28;20034;-89
2022/05/29 12:08:49;;;;;;;13.23;2.20;;;19.40;45.30;;;;;;4146735;28;20099;-89
2022/05/29 12:11:28;;;;;;;9.75;1.75;;;19.40;45.00;;;;;;4130950;28;20108;-89
2022/05/29 12:14:25;;;;;;;13.70;2.10;;;19.40;45.40;;;;;;4138143;28;20083;-88
2022/05/29 12:16:32;;;;;;;10.00;1.98;;;19.40;45.00;;;;;;4129458;28;20030;-89
2022/05/29 12:18:55;;;;;;;4.78;1.33;;;19.50;45.40;;;;;;4132118;28;21426;-88
2022/05/29 12:21:27;;;;;;;8.40;1.65;;;19.50;45.40;;;;;;4133617;28;20030;-89
2022/05/29 12:23:51;;;;;;;12.82;2.00;;;19.60;44.00;;;;;;4130758;28;20026;-88
2022/05/29 12:26:22;;;;;;;18.75;2.55;;;19.60;44.80;;;;;;4133430;28;20026;-87
2022/05/29 12:29:00;;;;;;;13.88;1.92;;;19.70;44.90;;;;;;4134270;28;20516;-89
2022/05/29 12:31:37;;;;;;;13.50;1.92;;;19.70;44.20;;;;;;4127603;28;20038;-89
2022/05/29 12:33:58;;;;;;;9.20;1.98;;;19.80;43.30;;;;;;4132681;28;20030;-89
2022/05/29 12:37:01;;;;;;;9.30;1.50;;;19.90;44.20;;;;;;4141180;28;20048;-89
2022/05/29 12:39:28;;;;;;;8.20;1.48;;;19.90;43.30;;;;;;4140735;28;20037;-87
2022/05/29 12:42:01;;;;;;;8.32;1.83;;;20.00;43.90;;;;;;4132719;28;20484;-89
2022/05/29 12:44:33;;;;;;;16.42;2.00;;;20.00;43.00;;;;;;4130343;28;20109;-89
2022/05/29 12:47:14;;;;;;;9.02;1.85;;;20.10;43.50;;;;;;4127343;28;20037;-90
2022/05/29 12:50:04;;;;;;;12.38;2.25;;;20.10;42.40;;;;;;4146934;28;20133;-88
2022/05/29 12:52:58;;;;;;;6.95;1.73;;;20.10;42.50;;;;;;4129276;28;20512;-90
2022/05/29 12:55:19;;;;;;;10.43;1.85;;;20.20;43.00;;;;;;4131770;28;20033;-90
2022/05/29 12:57:58;;;;;;;9.52;1.73;;;20.30;43.90;;;;;;4145681;28;20120;-89
2022/05/29 13:00:21;;;;;;;8.73;1.50;;;20.30;43.40;;;;;;4135905;28;20030;-89
2022/05/29 13:03:04;;;;;;;10.10;1.48;;;20.30;42.70;;;;;;4129766;28;20575;-89
2022/05/29 13:05:58;;;;;;;9.27;1.58;;;20.30;42.60;;;;;;4129493;28;20031;-89
2022/05/29 13:08:28;;;;;;;;;;;20.40;42.50;;;;;;4133512;28;20034;-88
2022/05/29 13:10:52;;;;;;;5.78;1.48;;;20.40;43.40;;;;;;4138378;28;19939;-87
2022/05/29 13:13:19;;;;;;;;;;;20.40;43.20;;;;;;4127959;28;20038;-89
2022/05/29 13:15:42;;;;;;;12.60;1.88;;;20.40;43.20;;;;;;4130161;28;19924;-89
2022/05/29 13:18:10;;;;;;;5.95;1.67;;;20.40;42.90;;;;;;4136687;28;20038;-89
2022/05/29 13:21:10;;;;;;;9.45;1.83;;;20.30;42.60;;;;;;4130185;28;20053;-89
2022/05/29 13:23:11;;;;;;;12.43;1.55;;;20.30;42.80;;;;;;4146466;28;20068;-89
2022/05/29 13:25:56;;;;;;;6.50;1.85;;;20.30;43.10;;;;;;4143524;28;20025;-90
2022/05/29 13:28:47;;;;;;;10.73;1.40;;;20.20;41.80;;;;;;4133807;28;20108;-89
2022/05/29 13:31:12;;;;;;;15.35;1.92;;;20.20;42.90;;;;;;4131404;28;20120;-86
2022/05/29 13:33:46;;;;;;;10.95;2.15;;;20.10;43.30;;;;;;4127208;28;20034;-88
2022/05/29 13:36:07;;;;;;;13.25;2.30;;;20.10;43.40;;;;;;4129746;28;20040;-88
2022/05/29 13:38:46;;;;;;;14.07;2.20;;;20.00;43.30;;;;;;4134463;28;20030;-87
2022/05/29 13:41:07;;;;;;;7.53;1.80;;;19.90;43.20;;;;;;4133262;28;20038;-89
2022/05/29 13:43:27;;;;;;;7.63;2.10;;;19.80;43.30;;;;;;4128492;28;20033;-89
2022/05/29 13:46:04;;;;;;;15.35;2.15;;;19.70;43.60;;;;;;4127553;28;20490;-87
2022/05/29 13:48:32;;;;;;;14.50;2.00;;;19.60;43.60;;;;;;4130435;28;20389;-87
2022/05/29 13:50:53;;;;;;;8.02;2.05;;;19.40;43.80;;;;;;4146182;28;20651;-85
2022/05/29 13:53:33;;;;;;;10.95;1.50;;;19.30;44.40;;;;;;4130626;28;20038;-87
2022/05/29 13:56:06;;;;;;;12.13;1.85;;;19.20;45.30;;;;;;4119436;28;20042;-87
2022/05/29 14:05:45;;;;;;;11.77;2.17;;;18.70;47.00;;;;;;4129437;28;20121;-88
2022/05/29 14:08:18;;;;;;;12.52;2.25;;;18.60;47.10;;;;;;4130321;28;20068;-88
2022/05/29 14:10:19;;;;;;;13.60;2.25;;;18.50;47.20;;;;;;4131103;28;20035;-87
2022/05/29 14:12:20;;;;;;;14.05;2.13;;;18.40;47.30;;;;;;4124113;28;20133;-87
2022/05/29 14:14:37;;;;;;;16.42;1.88;;;18.30;47.50;;;;;;4131020;28;20521;-87
2022/05/29 14:16:43;;;;;;;10.60;1.65;;;18.20;47.90;;;;;;4133376;28;20029;-87
2022/05/29 14:18:58;;;;;;;9.40;2.30;;;18.20;48.30;;;;;;4133392;28;20756;-87
2022/05/29 14:21:20;;;;;;;9.77;1.88;;;18.10;48.00;;;;;;4147796;28;20475;-88
2022/05/29 14:23:59;;;;;;;7.45;1.55;;;18.00;48.80;;;;;;4135521;28;20084;-87
2022/05/29 14:26:44;;;;;;;13.95;1.92;;;17.90;49.10;;;;;;4130810;28;20025;-88
2022/05/29 14:29:23;;;;;;;11.23;2.00;;;17.90;49.30;;;;;;4145623;28;20178;-87
2022/05/29 14:31:43;;;;;;;13.40;1.77;;;17.70;49.20;;;;;;4110433;28;20041;-87
2022/05/29 14:34:08;;;;;;;7.45;1.52;;;17.70;49.60;;;;;;4130579;28;20030;-88
2022/05/29 14:36:46;;;;;;;15.40;1.73;;;17.60;49.80;;;;;;4130413;28;20108;-88
2022/05/29 14:39:17;;;;;;;10.18;1.65;;;17.60;50.40;;;;;;4112758;28;20574;-86
2022/05/29 14:41:30;;;;;;;11.10;1.83;;;17.50;50.50;;;;;;4145671;28;20030;-89
2022/05/29 14:43:31;;;;;;;10.82;1.85;;;17.40;50.40;;;;;;4129136;28;20030;-87
2022/05/29 14:45:41;;;;;;;11.55;1.73;;;17.30;50.40;;;;;;4118447;28;20041;-88
2022/05/29 14:47:59;;;;;;;11.73;1.70;;;17.30;50.40;;;;;;4139389;28;20480;-86
2022/05/29 14:50:44;;;;;;;14.95;1.80;;;17.20;51.00;;;;;;4131676;28;20030;-86
2022/05/29 14:53:16;;;;;;;11.45;2.33;;;17.20;50.50;;;;;;4130772;28;20030;-88
2022/05/29 14:56:03;;;;;;;9.75;2.10;;;17.10;50.60;;;;;;4146273;28;20435;-87
2022/05/29 14:58:31;;;;;;;17.02;2.08;;;17.10;51.30;;;;;;4132386;28;20030;-86
2022/05/29 15:00:52;;;;;;;17.23;1.70;;;17.00;52.00;;;;;;4146224;28;20530;-85
2022/05/29 15:03:27;;;;;;;7.82;1.58;;;16.90;52.40;;;;;;4136226;28;20678;-84
2022/05/29 15:05:50;;;;;;;14.55;1.90;;;16.80;53.30;;;;;;4130496;28;20033;-84
2022/05/29 15:11:02;;;;;;;7.75;1.45;;;16.60;53.10;;;;;;4130659;28;20038;-87
2022/05/29 15:13:30;;;;;;;9.88;1.50;;;16.50;53.40;;;;;;4131166;28;20439;-85
2022/05/29 15:15:34;;;;;;;7.20;1.40;;;16.40;53.00;;;;;;4129923;28;20972;-86
2022/05/29 15:17:39;;;;;;;7.05;1.55;;;16.30;53.20;;;;;;4132147;28;20022;-87
2022/05/29 15:25:18;;;;;;;13.98;1.88;;;15.90;54.40;;;;;;4096141;28;20031;-86
2022/05/29 15:27:43;;;;;;;13.88;1.60;;;15.80;54.50;;;;;;4089856;28;20035;-86
2022/05/29 15:30:12;;;;;;;14.82;2.03;;;15.60;54.50;;;;;;4086793;28;20045;-87
2022/05/29 15:32:38;;;;;;;12.02;1.70;;;15.50;54.80;;;;;;4096376;28;20031;-85
2022/05/29 15:35:32;;;;;;;11.57;1.70;;;15.40;55.00;;;;;;4100913;28;20030;-84
2022/05/29 15:38:18;;;;;;;13.17;1.87;;;15.30;55.40;;;;;;4066739;29;20047;-89
2022/05/29 15:40:57;;;;;;;13.73;1.48;;;15.20;54.90;;;;;;4048485;29;20039;-86
2022/05/29 15:43:53;;;;;;;13.65;1.95;;;15.10;55.10;;;;;;4066809;29;20125;-85
2022/05/29 15:46:29;;;;;;;7.07;1.50;;;15.00;55.30;;;;;;4074625;29;20071;-87
2022/05/29 15:49:34;;;;;;;8.98;1.60;;;14.90;54.80;;;;;;4053492;29;20111;-88
2022/05/29 15:52:12;;;;;;;13.20;1.87;;;14.80;55.00;;;;;;4055760;29;20047;-86
2022/05/29 15:54:42;;;;;;;6.80;1.40;;;14.80;55.10;;;;;;4082219;28;20330;-85
2022/05/29 15:57:25;;;;;;;11.07;1.48;;;14.70;55.40;;;;;;4082043;28;20537;-87
2022/05/29 16:00:15;;;;;;;12.50;1.92;;;14.70;55.70;;;;;;4102055;28;20035;-88
2022/05/29 16:02:51;;;;;;;12.68;1.73;;;14.60;55.00;;;;;;4098872;28;20038;-87
2022/05/29 16:05:31;;;;;;;9.88;1.50;;;14.60;55.10;;;;;;4098175;28;20133;-87
2022/05/29 16:07:39;;;;;;;12.63;1.77;;;14.50;55.00;;;;;;4098040;28;20294;-87
2022/05/29 16:09:53;;;;;;;11.48;1.77;;;14.50;55.10;;;;;;4081803;28;20023;-87
2022/05/29 16:11:55;;;;;;;;;;;14.40;55.00;;;;;;4083947;28;20086;-87
2022/05/29 16:13:56;;;;;;;6.70;1.00;;;14.30;54.70;;;;;;4102551;28;19917;-88
2022/05/29 16:16:08;;;;;;;11.70;1.48;;;14.30;54.70;;;;;;4133809;28;20034;-86
2022/05/29 16:18:39;;;;;;;11.93;1.67;;;14.30;54.70;;;;;;4145668;28;20033;-85